^^
Station Historical Data
Daily Summary for October 13, 2017 Units:  English    Metric   Both
« Previous Day
Next Day »
Daily Weekly Monthly Yearly Custom
  High: Low: Average:
Temperature: 79.2 °F 55.0 °F 65.5 °F
Dew Point: 66.9 °F 54.5 °F 60.1 °F
Humidity: 99% 57% 84%
Wind Speed: 4.0mph 0.0mph 0.1mph
Wind Gust: 4.0mph - -
Wind- - SSW
Pressure: 30.34 in 30.24 in -
Precipitation: 0.00 in    
Historical Graphs
 
 
Tabular Data for October 13, 2017
Time Temperature Dew Point Pressure Wind Wind Speed Wind Gust Humidity Rainfall Rate (Hourly)
00:04 58.5 °F 56.1 °F 30.24 in Calm     92% 0.00 in
00:09 58.5 °F 56.1 °F 30.24 in Calm     92% 0.00 in
00:14 58.3 °F 55.9 °F 30.24 in Calm     92% 0.00 in
00:15 58.3 °F 55.9 °F 30.24 in Calm     92% 0.00 in
00:20 57.9 °F 55.6 °F 30.24 in Calm     92% 0.00 in
00:25 57.7 °F 55.8 °F 30.24 in Calm     93% 0.00 in
00:30 57.6 °F 55.6 °F 30.24 in Calm     93% 0.00 in
00:35 57.4 °F 55.4 °F 30.24 in Calm     93% 0.00 in
00:40 57.4 °F 55.6 °F 30.24 in Calm     94% 0.00 in
00:45 57.4 °F 55.9 °F 30.24 in Calm     95% 0.00 in
00:50 57.4 °F 55.9 °F 30.24 in Calm     95% 0.00 in
00:55 57.4 °F 55.9 °F 30.24 in Calm     95% 0.00 in
01:00 57.4 °F 55.9 °F 30.24 in Calm     95% 0.00 in
01:05 57.2 °F 55.8 °F 30.24 in Calm     95% 0.00 in
01:10 57.4 °F 56.3 °F 30.24 in Calm     96% 0.00 in
01:15 57.4 °F 56.3 °F 30.24 in Calm     96% 0.00 in
01:20 57.4 °F 55.9 °F 30.24 in Calm     95% 0.00 in
01:25 57.4 °F 56.3 °F 30.24 in Calm     96% 0.00 in
01:30 57.4 °F 55.9 °F 30.24 in Calm     95% 0.00 in
01:35 57.2 °F 55.8 °F 30.24 in Calm     95% 0.00 in
01:40 57.0 °F 55.6 °F 30.24 in Calm     95% 0.00 in
01:45 57.0 °F 55.6 °F 30.24 in Calm     95% 0.00 in
01:50 56.8 °F 55.8 °F 30.24 in Calm     96% 0.00 in
01:55 56.8 °F 55.8 °F 30.24 in Calm     96% 0.00 in
02:00 56.8 °F 55.8 °F 30.24 in Calm     96% 0.00 in
02:05 56.8 °F 55.8 °F 30.24 in Calm     96% 0.00 in
02:10 56.8 °F 55.8 °F 30.24 in Calm     96% 0.00 in
02:16 56.7 °F 55.6 °F 30.24 in Calm     96% 0.00 in
02:21 56.7 °F 55.6 °F 30.24 in Calm     96% 0.00 in
02:26 56.5 °F 55.4 °F 30.24 in Calm     96% 0.00 in
02:31 56.5 °F 55.6 °F 30.24 in Calm     97% 0.00 in
02:36 56.7 °F 55.8 °F 30.24 in Calm     97% 0.00 in
02:41 56.7 °F 55.8 °F 30.25 in Calm     97% 0.00 in
02:46 56.5 °F 55.6 °F 30.25 in Calm     97% 0.00 in
02:51 56.1 °F 55.0 °F 30.25 in Calm     96% 0.00 in
02:56 56.1 °F 55.0 °F 30.25 in Calm     96% 0.00 in
03:01 56.1 °F 55.2 °F 30.25 in Calm     97% 0.00 in
03:06 56.5 °F 55.6 °F 30.25 in Calm     97% 0.00 in
03:11 56.5 °F 55.9 °F 30.25 in Calm     98% 0.00 in
03:16 56.7 °F 56.1 °F 30.25 in Calm     98% 0.00 in
03:21 56.5 °F 55.6 °F 30.25 in Calm     97% 0.00 in
03:23 56.5 °F 55.6 °F 30.26 in Calm     97% 0.00 in
03:28 56.3 °F 55.4 °F 30.26 in Calm     97% 0.00 in
03:33 56.1 °F 55.2 °F 30.26 in Calm     97% 0.00 in
03:38 56.3 °F 55.4 °F 30.25 in Calm     97% 0.00 in
03:43 56.3 °F 55.4 °F 30.25 in Calm     97% 0.00 in
03:44 56.3 °F 55.4 °F 30.25 in Calm     97% 0.00 in
03:49 56.3 °F 55.4 °F 30.25 in Calm     97% 0.00 in
03:54 56.3 °F 55.4 °F 30.25 in Calm     97% 0.00 in
03:59 56.1 °F 55.2 °F 30.25 in Calm     97% 0.00 in
04:05 55.9 °F 55.0 °F 30.26 in Calm     97% 0.00 in
04:10 55.8 °F 54.9 °F 30.26 in Calm     97% 0.00 in
04:15 55.8 °F 54.9 °F 30.26 in Calm     97% 0.00 in
04:20 55.8 °F 54.9 °F 30.26 in Calm     97% 0.00 in
04:25 55.8 °F 54.9 °F 30.26 in Calm     97% 0.00 in
04:30 55.8 °F 55.2 °F 30.26 in Calm     98% 0.00 in
04:35 55.8 °F 55.2 °F 30.26 in Calm     98% 0.00 in
04:40 55.6 °F 55.0 °F 30.26 in Calm     98% 0.00 in
04:45 55.6 °F 55.0 °F 30.26 in Calm     98% 0.00 in
04:50 55.6 °F 55.0 °F 30.26 in Calm     98% 0.00 in
04:55 55.6 °F 55.0 °F 30.27 in Calm     98% 0.00 in
05:00 55.6 °F 55.0 °F 30.27 in Calm     98% 0.00 in
05:05 55.4 °F 54.9 °F 30.27 in Calm     98% 0.00 in
05:10 55.2 °F 54.7 °F 30.27 in Calm     98% 0.00 in
05:15 55.2 °F 54.7 °F 30.27 in Calm     98% 0.00 in
05:20 55.0 °F 54.5 °F 30.27 in Calm     98% 0.00 in
05:25 55.0 °F 54.5 °F 30.27 in Calm     98% 0.00 in
05:30 55.2 °F 54.7 °F 30.27 in Calm     98% 0.00 in
05:35 55.0 °F 54.5 °F 30.27 in Calm     98% 0.00 in
05:40 55.0 °F 54.5 °F 30.28 in Calm     98% 0.00 in
05:45 55.0 °F 54.5 °F 30.28 in Calm     98% 0.00 in
05:50 55.0 °F 54.5 °F 30.28 in Calm     98% 0.00 in
05:55 55.0 °F 54.5 °F 30.28 in Calm     98% 0.00 in
06:00 55.2 °F 54.7 °F 30.28 in Calm     98% 0.00 in
06:05 55.2 °F 54.7 °F 30.29 in Calm     98% 0.00 in
06:10 55.2 °F 54.7 °F 30.29 in Calm     98% 0.00 in
06:15 55.0 °F 54.5 °F 30.29 in Calm     98% 0.00 in
06:20 55.2 °F 54.7 °F 30.29 in Calm     98% 0.00 in
06:25 55.4 °F 54.9 °F 30.29 in Calm     98% 0.00 in
06:31 55.6 °F 55.2 °F 30.29 in Calm     99% 0.00 in
06:36 55.6 °F 55.2 °F 30.29 in Calm     99% 0.00 in
06:41 55.6 °F 55.0 °F 30.29 in Calm     98% 0.00 in
06:46 55.4 °F 54.9 °F 30.29 in Calm     98% 0.00 in
06:51 55.4 °F 54.9 °F 30.29 in Calm     98% 0.00 in
06:56 55.2 °F 54.7 °F 30.29 in Calm     98% 0.00 in
07:01 55.2 °F 54.7 °F 30.30 in Calm     98% 0.00 in
07:06 55.2 °F 54.7 °F 30.30 in Calm     98% 0.00 in
07:11 55.2 °F 54.7 °F 30.30 in Calm     98% 0.00 in
07:16 55.2 °F 54.7 °F 30.30 in Calm     98% 0.00 in
07:21 55.4 °F 55.0 °F 30.30 in Calm     99% 0.00 in
07:26 55.8 °F 55.4 °F 30.30 in Calm     99% 0.00 in
07:31 55.8 °F 55.4 °F 30.30 in Calm     99% 0.00 in
07:36 55.8 °F 55.4 °F 30.30 in Calm     99% 0.00 in
07:41 55.9 °F 55.6 °F 30.30 in Calm     99% 0.00 in
07:46 56.1 °F 55.8 °F 30.31 in Calm     99% 0.00 in
07:51 55.9 °F 55.6 °F 30.31 in Calm     99% 0.00 in
07:56 56.1 °F 55.8 °F 30.31 in Calm     99% 0.00 in
08:01 56.1 °F 55.8 °F 30.31 in Calm     99% 0.00 in
08:06 56.1 °F 55.8 °F 30.32 in Calm     99% 0.00 in
08:11 56.1 °F 55.8 °F 30.32 in Calm     99% 0.00 in
08:16 56.1 °F 55.8 °F 30.32 in Calm     99% 0.00 in
08:21 56.7 °F 56.3 °F 30.32 in Calm     99% 0.00 in
08:27 56.5 °F 56.1 °F 30.32 in Calm     99% 0.00 in
08:31 56.3 °F 55.9 °F 30.32 in Calm     99% 0.00 in
08:37 56.5 °F 56.1 °F 30.32 in Calm     99% 0.00 in
08:42 57.4 °F 57.0 °F 30.32 in Calm     99% 0.00 in
08:47 57.9 °F 57.6 °F 30.32 in Calm     99% 0.00 in
08:52 58.3 °F 57.9 °F 30.32 in Calm     99% 0.00 in
08:57 58.8 °F 58.3 °F 30.32 in Calm     98% 0.00 in
09:02 59.4 °F 58.8 °F 30.32 in Calm     98% 0.00 in
09:07 59.4 °F 58.5 °F 30.32 in Calm     97% 0.00 in
09:12 59.7 °F 58.8 °F 30.33 in Calm     97% 0.00 in
09:17 60.3 °F 59.4 °F 30.33 in Calm     97% 0.00 in
09:22 60.8 °F 59.7 °F 30.33 in Calm     96% 0.00 in
09:27 61.5 °F 60.4 °F 30.33 in Calm     96% 0.00 in
09:32 62.4 °F 60.6 °F 30.33 in Calm     94% 0.00 in
09:37 63.0 °F 61.2 °F 30.33 in Calm     94% 0.00 in
09:42 63.5 °F 61.2 °F 30.33 in Calm     92% 0.00 in
09:47 63.9 °F 61.2 °F 30.33 in Calm     91% 0.00 in
09:52 64.2 °F 61.9 °F 30.33 in Calm     92% 0.00 in
09:57 64.4 °F 61.7 °F 30.33 in Calm     91% 0.00 in
10:02 64.6 °F 61.5 °F 30.34 in Calm     90% 0.00 in
10:07 64.9 °F 61.7 °F 30.34 in Calm     89% 0.00 in
10:12 66.0 °F 63.0 °F 30.34 in Calm   1.0 mph 90% 0.00 in
10:17 66.7 °F 63.1 °F 30.34 in Calm   1.0 mph 88% 0.00 in
10:22 67.5 °F 63.5 °F 30.33 in Calm     87% 0.00 in
10:28 68.4 °F 63.7 °F 30.33 in Calm   1.0 mph 85% 0.00 in
10:29 68.5 °F 63.5 °F 30.33 in Calm   1.0 mph 84% 0.00 in
10:34 70.0 °F 65.7 °F 30.33 in Calm   1.0 mph 86% 0.00 in
10:39 71.1 °F 65.3 °F 30.33 in Calm     82% 0.00 in
10:44 71.8 °F 65.7 °F 30.33 in Calm     81% 0.00 in
10:49 72.7 °F 65.1 °F 30.33 in Calm   1.0 mph 77% 0.00 in
10:54 73.2 °F 66.4 °F 30.33 in Calm     79% 0.00 in
10:59 73.8 °F 66.9 °F 30.33 in Calm     79% 0.00 in
11:04 74.3 °F 65.5 °F 30.32 in NE 0.9 mph 2.0 mph 74% 0.00 in
11:09 74.8 °F 66.0 °F 30.32 in Calm   1.0 mph 74% 0.00 in
11:14 75.4 °F 65.3 °F 30.32 in Calm   3.0 mph 71% 0.00 in
11:19 74.8 °F 64.8 °F 30.32 in Calm   2.0 mph 71% 0.00 in
11:24 74.8 °F 64.4 °F 30.32 in Calm   2.0 mph 70% 0.00 in
11:29 74.7 °F 65.5 °F 30.32 in Calm     73% 0.00 in
11:34 73.9 °F 64.8 °F 30.32 in Calm     73% 0.00 in
11:40 73.2 °F 64.8 °F 30.32 in Calm     75% 0.00 in
11:45 72.9 °F 64.8 °F 30.31 in Calm   1.0 mph 76% 0.00 in
11:50 73.0 °F 63.9 °F 30.31 in Calm   4.0 mph 73% 0.00 in
11:55 73.9 °F 65.1 °F 30.31 in Calm     74% 0.00 in
12:00 73.8 °F 64.9 °F 30.31 in Calm   1.0 mph 74% 0.00 in
12:05 73.8 °F 64.9 °F 30.31 in ESE 0.9 mph 2.0 mph 74% 0.00 in
12:10 74.3 °F 63.9 °F 30.31 in Calm   1.0 mph 70% 0.00 in
12:15 74.7 °F 65.1 °F 30.30 in Calm     72% 0.00 in
12:20 74.8 °F 65.1 °F 30.30 in Calm     72% 0.00 in
12:25 74.8 °F 64.4 °F 30.31 in Calm   1.0 mph 70% 0.00 in
12:30 75.2 °F 64.8 °F 30.30 in Calm     70% 0.00 in
12:35 75.7 °F 64.4 °F 30.30 in Calm   2.0 mph 68% 0.00 in
12:40 76.3 °F 64.0 °F 30.30 in South 0.9 mph 2.0 mph 66% 0.00 in
12:46 76.6 °F 64.9 °F 30.30 in Calm   1.0 mph 67% 0.00 in
12:51 76.6 °F 64.9 °F 30.29 in Calm     67% 0.00 in
12:56 76.6 °F 64.4 °F 30.29 in Calm   1.0 mph 66% 0.00 in
13:01 76.6 °F 64.4 °F 30.29 in Calm     66% 0.00 in
13:06 76.3 °F 64.6 °F 30.29 in Calm     67% 0.00 in
13:11 76.3 °F 64.6 °F 30.29 in East 0.9 mph 1.0 mph 67% 0.00 in
13:16 76.6 °F 64.0 °F 30.29 in Calm   1.0 mph 65% 0.00 in
13:21 77.0 °F 64.4 °F 30.28 in Calm     65% 0.00 in
13:26 77.4 °F 62.8 °F 30.28 in Calm   1.0 mph 61% 0.00 in
13:31 77.7 °F 63.7 °F 30.28 in Calm     62% 0.00 in
13:36 77.9 °F 63.9 °F 30.28 in NNW 0.9 mph 2.0 mph 62% 0.00 in
13:41 78.1 °F 64.4 °F 30.27 in NE 2.0 mph 2.0 mph 63% 0.00 in
13:46 78.4 °F 64.4 °F 30.27 in ENE 2.0 mph 4.0 mph 62% 0.00 in
13:51 78.4 °F 62.4 °F 30.27 in Calm   3.0 mph 58% 0.00 in
13:56 78.4 °F 63.0 °F 30.27 in Calm     59% 0.00 in
14:01 78.6 °F 63.1 °F 30.26 in NW 4.0 mph 4.0 mph 59% 0.00 in
14:06 78.4 °F 63.0 °F 30.26 in SW 2.9 mph 4.0 mph 59% 0.00 in
14:11 78.6 °F 64.0 °F 30.26 in ESE 0.9 mph 2.0 mph 61% 0.00 in
14:16 79.0 °F 63.5 °F 30.26 in Calm   1.0 mph 59% 0.00 in
14:21 79.2 °F 64.0 °F 30.26 in Calm   3.0 mph 60% 0.00 in
14:26 79.0 °F 64.8 °F 30.26 in NNW 0.9 mph 2.0 mph 62% 0.00 in
14:27 79.0 °F 64.4 °F 30.26 in West 0.9 mph 2.0 mph 61% 0.00 in
14:32 79.0 °F 63.5 °F 30.25 in Calm   2.0 mph 59% 0.00 in
14:37 79.2 °F 63.7 °F 30.25 in ENE 2.0 mph 4.0 mph 59% 0.00 in
14:42 79.2 °F 64.0 °F 30.25 in Calm   1.0 mph 60% 0.00 in
14:47 79.0 °F 63.0 °F 30.25 in WNW 0.9 mph 1.0 mph 58% 0.00 in
14:52 78.4 °F 61.9 °F 30.25 in WNW 0.9 mph 2.0 mph 57% 0.00 in
14:57 77.4 °F 62.4 °F 30.25 in Calm   2.0 mph 60% 0.00 in
15:02 76.8 °F 62.8 °F 30.25 in Calm   3.0 mph 62% 0.00 in
15:08 76.6 °F 63.5 °F 30.25 in North 0.9 mph 1.0 mph 64% 0.00 in
15:13 76.8 °F 63.7 °F 30.25 in SW 0.9 mph 2.0 mph 64% 0.00 in
15:18 77.0 °F 63.9 °F 30.25 in NNW 0.9 mph 3.0 mph 64% 0.00 in
15:23 77.2 °F 63.7 °F 30.25 in Calm   2.0 mph 63% 0.00 in
15:24 77.2 °F 63.7 °F 30.25 in Calm   2.0 mph 63% 0.00 in
15:29 77.4 °F 63.9 °F 30.25 in Calm   1.0 mph 63% 0.00 in
15:33 77.2 °F 64.0 °F 30.25 in Calm   1.0 mph 64% 0.00 in
15:39 77.2 °F 64.6 °F 30.25 in Calm   1.0 mph 65% 0.00 in
15:44 77.5 °F 63.5 °F 30.25 in SE 0.9 mph 2.0 mph 62% 0.00 in
15:49 77.7 °F 64.0 °F 30.25 in Calm   1.0 mph 63% 0.00 in
15:54 77.9 °F 64.8 °F 30.25 in Calm   1.0 mph 64% 0.00 in
15:59 77.7 °F 62.8 °F 30.25 in Calm     60% 0.00 in
16:04 77.7 °F 62.8 °F 30.25 in Calm   1.0 mph 60% 0.00 in
16:09 77.7 °F 62.2 °F 30.25 in Calm     59% 0.00 in
16:14 77.9 °F 63.9 °F 30.25 in Calm     62% 0.00 in
16:19 78.1 °F 63.5 °F 30.25 in Calm   1.0 mph 61% 0.00 in
16:24 77.9 °F 63.0 °F 30.25 in Calm     60% 0.00 in
16:29 77.9 °F 62.4 °F 30.25 in Calm   1.0 mph 59% 0.00 in
16:34 77.7 °F 62.8 °F 30.25 in Calm   1.0 mph 60% 0.00 in
16:39 77.5 °F 63.5 °F 30.25 in Calm   1.0 mph 62% 0.00 in
16:44 77.4 °F 63.9 °F 30.25 in Calm     63% 0.00 in
16:49 77.2 °F 63.7 °F 30.25 in Calm     63% 0.00 in
16:54 76.8 °F 63.3 °F 30.25 in Calm     63% 0.00 in
16:59 76.6 °F 63.5 °F 30.25 in Calm     64% 0.00 in
17:04 76.3 °F 63.1 °F 30.25 in Calm     64% 0.00 in
17:09 76.1 °F 63.0 °F 30.25 in Calm     64% 0.00 in
17:14 75.9 °F 62.8 °F 30.25 in Calm     64% 0.00 in
17:19 75.7 °F 63.1 °F 30.25 in Calm     65% 0.00 in
17:24 75.6 °F 63.3 °F 30.25 in Calm     66% 0.00 in
17:29 75.4 °F 63.7 °F 30.25 in Calm     67% 0.00 in
17:34 75.4 °F 63.7 °F 30.25 in Calm     67% 0.00 in
17:39 75.2 °F 63.5 °F 30.25 in Calm     67% 0.00 in
17:44 74.8 °F 63.1 °F 30.25 in Calm     67% 0.00 in
17:49 74.7 °F 63.3 °F 30.25 in Calm     68% 0.00 in
17:54 74.5 °F 63.7 °F 30.25 in Calm     69% 0.00 in
17:59 74.1 °F 63.0 °F 30.25 in Calm     68% 0.00 in
18:04 73.9 °F 62.8 °F 30.25 in Calm     68% 0.00 in
18:09 73.8 °F 63.0 °F 30.26 in Calm     69% 0.00 in
18:14 73.6 °F 62.8 °F 30.26 in Calm     69% 0.00 in
18:19 73.2 °F 62.8 °F 30.26 in Calm     70% 0.00 in
18:24 73.0 °F 62.6 °F 30.26 in Calm     70% 0.00 in
18:29 72.9 °F 63.0 °F 30.26 in North 0.9 mph 1.0 mph 71% 0.00 in
18:34 72.7 °F 63.1 °F 30.26 in Calm     72% 0.00 in
18:39 72.3 °F 63.1 °F 30.26 in NNW 0.9 mph 1.0 mph 73% 0.00 in
18:44 72.1 °F 63.3 °F 30.26 in Calm     74% 0.00 in
18:49 71.8 °F 63.0 °F 30.27 in Calm     74% 0.00 in
18:54 71.4 °F 63.1 °F 30.27 in Calm   1.0 mph 75% 0.00 in
19:00 71.1 °F 63.1 °F 30.27 in Calm     76% 0.00 in
19:05 70.9 °F 63.3 °F 30.27 in Calm   1.0 mph 77% 0.00 in
19:10 70.5 °F 63.3 °F 30.27 in Calm     78% 0.00 in
19:15 70.2 °F 63.0 °F 30.27 in Calm     78% 0.00 in
19:20 70.0 °F 63.1 °F 30.27 in Calm     79% 0.00 in
19:25 69.6 °F 63.1 °F 30.27 in Calm     80% 0.00 in
19:30 69.3 °F 62.8 °F 30.28 in Calm     80% 0.00 in
19:35 68.9 °F 62.8 °F 30.28 in Calm     81% 0.00 in
19:40 68.5 °F 62.4 °F 30.28 in Calm     81% 0.00 in
19:45 68.4 °F 62.6 °F 30.28 in Calm     82% 0.00 in
19:50 68.4 °F 62.6 °F 30.28 in Calm     82% 0.00 in
19:55 68.2 °F 62.4 °F 30.29 in Calm     82% 0.00 in
20:00 67.8 °F 62.4 °F 30.29 in Calm     83% 0.00 in
20:05 67.6 °F 62.6 °F 30.29 in Calm     84% 0.00 in
20:11 67.5 °F 62.4 °F 30.29 in Calm     84% 0.00 in
20:16 67.1 °F 62.4 °F 30.29 in Calm     85% 0.00 in
20:21 66.7 °F 62.1 °F 30.29 in Calm     85% 0.00 in
20:26 66.6 °F 62.2 °F 30.29 in Calm     86% 0.00 in
20:31 66.4 °F 62.4 °F 30.29 in Calm     87% 0.00 in
20:36 66.0 °F 62.1 °F 30.29 in Calm     87% 0.00 in
20:41 65.8 °F 61.9 °F 30.29 in Calm     87% 0.00 in
20:46 65.7 °F 62.1 °F 30.29 in Calm     88% 0.00 in
20:51 65.7 °F 62.1 °F 30.29 in Calm     88% 0.00 in
20:56 65.5 °F 62.2 °F 30.30 in Calm     89% 0.00 in
21:01 65.5 °F 62.2 °F 30.30 in Calm     89% 0.00 in
21:06 65.1 °F 61.9 °F 30.30 in Calm     89% 0.00 in
21:11 64.9 °F 61.9 °F 30.30 in Calm     90% 0.00 in
21:16 64.8 °F 61.7 °F 30.30 in Calm     90% 0.00 in
21:21 64.8 °F 61.7 °F 30.30 in Calm     90% 0.00 in
21:27 64.6 °F 61.5 °F 30.30 in Calm     90% 0.00 in
21:32 64.6 °F 61.9 °F 30.31 in Calm     91% 0.00 in
21:37 64.8 °F 61.7 °F 30.30 in Calm     90% 0.00 in
21:41 64.8 °F 61.7 °F 30.31 in Calm     90% 0.00 in
21:47 64.6 °F 61.5 °F 30.31 in Calm     90% 0.00 in
21:52 64.6 °F 61.5 °F 30.31 in Calm     90% 0.00 in
21:57 64.6 °F 61.9 °F 30.31 in Calm     91% 0.00 in
22:02 64.4 °F 61.3 °F 30.31 in Calm     90% 0.00 in
22:07 64.4 °F 61.3 °F 30.32 in Calm     90% 0.00 in
22:12 64.4 °F 61.7 °F 30.32 in Calm     91% 0.00 in
22:17 64.2 °F 61.2 °F 30.32 in Calm     90% 0.00 in
22:22 64.0 °F 61.3 °F 30.32 in Calm     91% 0.00 in
22:27 63.9 °F 61.2 °F 30.32 in Calm     91% 0.00 in
22:32 63.7 °F 61.3 °F 30.32 in Calm     92% 0.00 in
22:37 63.5 °F 61.2 °F 30.32 in Calm     92% 0.00 in
22:42 63.3 °F 61.0 °F 30.32 in Calm     92% 0.00 in
22:47 63.1 °F 60.8 °F 30.32 in Calm     92% 0.00 in
22:52 63.1 °F 61.2 °F 30.32 in Calm     93% 0.00 in
22:57 63.0 °F 61.0 °F 30.32 in Calm     93% 0.00 in
23:02 62.8 °F 60.8 °F 30.32 in Calm     93% 0.00 in
23:07 62.4 °F 60.4 °F 30.32 in Calm     93% 0.00 in
23:14 62.4 °F 60.6 °F 30.32 in Calm     94% 0.00 in
23:19 62.2 °F 60.4 °F 30.33 in Calm     94% 0.00 in
23:20 62.2 °F 60.4 °F 30.32 in Calm     94% 0.00 in
23:23 62.1 °F 60.3 °F 30.33 in Calm     94% 0.00 in
23:28 62.1 °F 60.3 °F 30.33 in Calm     94% 0.00 in
23:33 62.1 °F 60.3 °F 30.33 in Calm     94% 0.00 in
23:38 61.9 °F 60.1 °F 30.33 in Calm     94% 0.00 in
23:43 61.9 °F 60.1 °F 30.33 in Calm     94% 0.00 in
23:48 61.9 °F 60.4 °F 30.33 in Calm     95% 0.00 in
23:53 61.9 °F 60.1 °F 30.33 in Calm     94% 0.00 in
23:58 61.7 °F 59.9 °F 30.33 in Calm     94% 0.00 in
WheeWeather.com
Compliments of Weather Underground - 3.75 mb